createdAt,value
2018-08-28T00:02:10.629Z,10.37
2018-08-28T00:04:39.867Z,5.63
2018-08-28T00:07:09.019Z,4.67
2018-08-28T00:09:38.066Z,5.67
2018-08-28T00:12:07.751Z,6.47
2018-08-28T00:14:36.834Z,4.10
2018-08-28T00:17:06.123Z,7.33
2018-08-28T00:19:35.249Z,6.17
2018-08-28T00:22:04.520Z,8.27
2018-08-28T00:24:33.646Z,5.87
2018-08-28T00:27:02.890Z,5.30
2018-08-28T00:29:32.030Z,5.47
2018-08-28T00:32:01.282Z,5.03
2018-08-28T00:34:30.341Z,3.53
2018-08-28T00:36:59.468Z,3.33
2018-08-28T00:39:28.565Z,5.60
2018-08-28T00:41:57.682Z,11.10
2018-08-28T00:44:26.911Z,5.27
2018-08-28T00:46:55.915Z,6.07
2018-08-28T00:49:25.147Z,6.30
2018-08-28T00:51:54.470Z,5.37
2018-08-28T00:54:23.778Z,6.33
2018-08-28T00:56:52.845Z,6.20
2018-08-28T00:59:22.001Z,6.17
2018-08-28T01:01:51.642Z,5.57
2018-08-28T01:04:21.692Z,7.17
2018-08-28T01:06:51.534Z,6.63
2018-08-28T01:09:20.649Z,9.20
2018-08-28T01:11:49.771Z,10.73
2018-08-28T01:14:18.917Z,7.67
2018-08-28T01:16:48.197Z,7.53
2018-08-28T01:19:17.614Z,10.13
2018-08-28T01:21:47.066Z,8.63
2018-08-28T01:24:16.338Z,10.87
2018-08-28T01:26:45.638Z,10.47
2018-08-28T01:29:15.253Z,5.67
2018-08-28T01:31:44.659Z,8.27
2018-08-28T01:34:14.248Z,7.33
2018-08-28T01:36:44.050Z,7.87
2018-08-28T01:39:13.715Z,8.67
2018-08-28T01:41:42.940Z,6.23
2018-08-28T01:44:12.763Z,4.47
2018-08-28T01:46:41.876Z,5.17
2018-08-28T01:49:11.594Z,7.33
2018-08-28T01:51:41.374Z,7.30
2018-08-28T01:54:11.021Z,7.67
2018-08-28T01:56:40.388Z,17.90
2018-08-28T01:59:09.509Z,10.30
2018-08-28T02:01:38.880Z,8.53
2018-08-28T02:04:08.599Z,14.33
2018-08-28T02:06:38.055Z,10.13
2018-08-28T02:09:08.937Z,8.83
2018-08-28T02:11:38.860Z,9.53
2018-08-28T02:14:09.382Z,9.83
2018-08-28T02:16:38.700Z,12.13
2018-08-28T02:19:07.892Z,12.33
2018-08-28T02:21:37.035Z,10.80
2018-08-28T02:24:06.632Z,9.00
2018-08-28T02:26:35.800Z,7.83
2018-08-28T02:29:04.947Z,8.43
2018-08-28T02:31:34.223Z,14.70
2018-08-28T02:34:03.367Z,13.67
2018-08-28T02:36:32.554Z,12.60
2018-08-28T02:39:01.738Z,9.83
2018-08-28T02:41:31.008Z,10.07
2018-08-28T02:44:00.008Z,7.50
2018-08-28T02:46:29.057Z,7.93
2018-08-28T02:48:58.123Z,6.97
2018-08-28T02:51:27.081Z,13.00
2018-08-28T02:53:56.260Z,12.30
2018-08-28T02:56:25.510Z,10.60
2018-08-28T02:58:54.541Z,10.07
2018-08-28T03:01:23.615Z,7.43
2018-08-28T03:03:52.870Z,7.83
2018-08-28T03:06:22.389Z,6.23
2018-08-28T03:08:51.627Z,7.00
2018-08-28T03:11:20.667Z,6.97
2018-08-28T03:13:49.759Z,7.63
2018-08-28T03:16:19.054Z,8.37
2018-08-28T03:18:48.270Z,7.13
2018-08-28T03:21:17.352Z,7.53
2018-08-28T03:23:46.580Z,8.77
2018-08-28T03:26:15.843Z,9.70
2018-08-28T03:28:44.880Z,7.60
2018-08-28T03:31:13.981Z,8.87
2018-08-28T03:33:42.982Z,7.63
2018-08-28T03:36:12.021Z,7.37
2018-08-28T03:38:41.071Z,12.97
2018-08-28T03:41:10.248Z,9.73
2018-08-28T03:43:39.379Z,7.27
2018-08-28T03:46:08.584Z,7.27
2018-08-28T03:48:37.828Z,7.50
2018-08-28T03:51:07.687Z,7.27
2018-08-28T03:53:36.754Z,9.17
2018-08-28T03:56:06.269Z,10.13
2018-08-28T03:58:35.319Z,7.17
2018-08-28T04:01:04.558Z,16.17
2018-08-28T04:03:33.801Z,10.37
2018-08-28T04:06:03.038Z,9.80
2018-08-28T04:08:32.157Z,9.87
2018-08-28T04:11:01.363Z,10.33
2018-08-28T04:13:30.561Z,7.30
2018-08-28T04:15:59.703Z,10.47
2018-08-28T04:18:28.880Z,7.63
2018-08-28T04:20:57.979Z,10.77
2018-08-28T04:23:27.157Z,8.93
2018-08-28T04:25:56.262Z,10.70
2018-08-28T04:28:25.427Z,7.17
2018-08-28T04:30:54.717Z,10.23
2018-08-28T04:33:24.037Z,8.80
2018-08-28T04:35:53.197Z,9.23
2018-08-28T04:38:22.589Z,7.03
2018-08-28T04:40:51.806Z,13.80
2018-08-28T04:43:21.017Z,14.30
2018-08-28T04:45:50.435Z,13.40
2018-08-28T04:48:19.697Z,10.00
2018-08-28T04:50:48.903Z,10.50
2018-08-28T04:53:18.112Z,9.37
2018-08-28T04:55:47.209Z,10.33
2018-08-28T04:58:17.324Z,11.87
2018-08-28T05:00:46.603Z,10.70
2018-08-28T05:03:15.986Z,9.00
2018-08-28T05:05:45.155Z,11.17
2018-08-28T05:08:14.346Z,10.40
2018-08-28T05:10:43.686Z,9.20
2018-08-28T05:13:13.063Z,9.80
2018-08-28T05:15:42.191Z,10.23
2018-08-28T05:18:11.421Z,7.10
2018-08-28T05:20:40.867Z,10.20
2018-08-28T05:23:10.046Z,9.83
2018-08-28T05:25:39.213Z,7.27
2018-08-28T05:28:08.675Z,5.60
2018-08-28T05:30:37.890Z,8.60
2018-08-28T05:33:07.141Z,10.83
2018-08-28T05:35:36.429Z,8.53
2018-08-28T05:38:05.689Z,10.50
2018-08-28T05:40:36.249Z,4.83
2018-08-28T05:43:05.812Z,3.90
2018-08-28T05:45:35.011Z,5.37
2018-08-28T05:48:04.120Z,4.87
2018-08-28T05:50:33.557Z,9.63
2018-08-28T05:53:02.852Z,5.00
2018-08-28T05:55:32.054Z,6.67
2018-08-28T05:58:01.203Z,5.93
2018-08-28T06:00:31.149Z,8.97
2018-08-28T06:03:00.616Z,6.63
2018-08-28T06:05:29.645Z,6.00
2018-08-28T06:07:58.732Z,8.03
2018-08-28T06:10:27.969Z,6.43
2018-08-28T06:12:57.092Z,5.77
2018-08-28T06:15:26.375Z,6.43
2018-08-28T06:17:55.647Z,6.73
2018-08-28T06:20:24.881Z,5.50
2018-08-28T06:22:53.970Z,6.40
2018-08-28T06:25:23.144Z,5.05
2018-08-28T06:27:52.195Z,6.03
2018-08-28T06:30:21.448Z,9.93
2018-08-28T06:32:50.643Z,8.58
2018-08-28T06:35:19.852Z,6.87
2018-08-28T06:37:49.059Z,6.87
2018-08-28T06:40:18.309Z,8.48
2018-08-28T06:42:47.686Z,8.00
2018-08-28T06:45:16.902Z,7.03
2018-08-28T06:47:46.190Z,8.68
2018-08-28T06:50:15.677Z,6.47
2018-08-28T06:52:45.019Z,5.30
2018-08-28T06:55:14.315Z,5.35
2018-08-28T06:57:43.882Z,6.33
2018-08-28T07:00:13.335Z,8.10
2018-08-28T07:02:42.517Z,6.50
2018-08-28T07:05:11.736Z,6.67
2018-08-28T07:07:41.057Z,5.70
2018-08-28T07:10:10.820Z,6.67
2018-08-28T07:12:39.918Z,6.20
2018-08-28T07:15:09.187Z,6.10
2018-08-28T07:17:38.306Z,7.83
2018-08-28T07:20:07.642Z,7.33
2018-08-28T07:22:37.024Z,9.65
2018-08-28T07:25:06.931Z,9.85
2018-08-28T07:27:36.227Z,11.43
2018-08-28T07:30:05.603Z,6.78
2018-08-28T07:32:34.753Z,9.48
2018-08-28T07:35:04.171Z,7.50
2018-08-28T07:37:33.521Z,8.15
2018-08-28T07:40:03.276Z,7.80
2018-08-28T07:42:32.424Z,7.20
2018-08-28T07:45:01.541Z,5.35
2018-08-28T07:47:31.669Z,9.23
2018-08-28T07:50:01.628Z,7.90
2018-08-28T07:52:30.930Z,6.10
2018-08-28T07:55:00.136Z,7.42
2018-08-28T07:57:29.279Z,7.33
2018-08-28T07:59:58.759Z,7.80
2018-08-28T08:02:28.144Z,11.33
2018-08-28T08:04:57.379Z,10.68
2018-08-28T08:07:27.156Z,10.90
2018-08-28T08:09:56.289Z,7.37
2018-08-28T08:12:25.605Z,7.47
2018-08-28T08:14:54.980Z,10.60
2018-08-28T08:17:24.113Z,7.17
2018-08-28T08:19:53.317Z,7.75
2018-08-28T08:22:22.575Z,6.10
2018-08-28T08:24:51.898Z,5.33
2018-08-28T08:27:21.025Z,7.78
2018-08-28T08:29:50.326Z,5.90
2018-08-28T08:32:19.712Z,6.08
2018-08-28T08:34:48.997Z,8.35
2018-08-28T08:37:18.223Z,7.12
2018-08-28T08:39:47.489Z,6.87
2018-08-28T08:42:16.773Z,8.80
2018-08-28T08:44:46.053Z,7.83
2018-08-28T08:47:15.509Z,5.72
2018-08-28T08:49:44.839Z,6.70
2018-08-28T08:52:14.233Z,7.42
2018-08-28T08:54:43.489Z,7.58
2018-08-28T08:57:12.661Z,8.75
2018-08-28T08:59:41.848Z,7.10
2018-08-28T09:02:11.294Z,7.28
2018-08-28T09:04:42.027Z,7.53
2018-08-28T09:07:11.989Z,21.48
2018-08-28T09:09:41.052Z,8.53
2018-08-28T09:12:10.361Z,5.37
2018-08-28T09:14:39.743Z,6.05
2018-08-28T09:17:09.101Z,6.40
2018-08-28T09:19:38.268Z,6.60
2018-08-28T09:22:07.303Z,10.90
2018-08-28T09:24:36.302Z,8.20
2018-08-28T09:27:05.473Z,9.80
2018-08-28T09:29:34.778Z,8.73
2018-08-28T09:32:04.102Z,6.97
2018-08-28T09:34:33.246Z,8.40
2018-08-28T09:37:02.612Z,5.28
2018-08-28T09:39:31.788Z,6.50
2018-08-28T09:42:00.934Z,7.87
2018-08-28T09:44:30.198Z,4.83
2018-08-28T09:46:59.489Z,4.45
2018-08-28T09:49:28.795Z,5.47
2018-08-28T09:51:58.148Z,4.90
2018-08-28T09:54:27.331Z,5.92
2018-08-28T09:56:56.679Z,4.70
2018-08-28T09:59:25.733Z,4.28
2018-08-28T10:01:55.121Z,4.25
2018-08-28T10:04:24.302Z,4.50
2018-08-28T10:06:53.574Z,4.50
2018-08-28T10:09:22.889Z,4.30
2018-08-28T10:11:52.162Z,4.83
2018-08-28T10:14:21.286Z,4.42
2018-08-28T10:16:50.474Z,4.72
2018-08-28T10:19:19.576Z,4.40
2018-08-28T10:21:48.659Z,4.12
2018-08-28T10:24:17.688Z,3.62
2018-08-28T10:26:47.120Z,4.30
2018-08-28T10:29:16.646Z,4.53
2018-08-28T10:31:45.701Z,4.50
2018-08-28T10:34:14.847Z,4.25
2018-08-28T10:36:44.664Z,4.37
2018-08-28T10:39:13.821Z,5.62
2018-08-28T10:41:43.042Z,4.35
2018-08-28T10:44:12.360Z,5.00
2018-08-28T10:46:41.785Z,4.58
2018-08-28T10:49:10.925Z,5.10
2018-08-28T10:51:40.235Z,6.55
2018-08-28T10:54:09.304Z,5.85
2018-08-28T10:56:38.911Z,4.05
2018-08-28T10:59:08.173Z,6.78
2018-08-28T11:01:37.369Z,5.87
2018-08-28T11:04:06.633Z,6.40
2018-08-28T11:06:35.765Z,7.90
2018-08-28T11:09:05.367Z,7.50
2018-08-28T11:11:34.619Z,5.65
2018-08-28T11:14:04.008Z,7.12
2018-08-28T11:16:33.611Z,5.25
2018-08-28T11:19:02.836Z,6.72
2018-08-28T11:21:34.668Z,4.40
2018-08-28T11:24:06.806Z,4.78
2018-08-28T11:26:35.930Z,4.58
2018-08-28T11:29:05.222Z,5.05
2018-08-28T11:31:34.615Z,4.37
2018-08-28T11:34:03.976Z,4.97
2018-08-28T11:36:33.101Z,5.87
2018-08-28T11:39:02.344Z,4.33
2018-08-28T11:41:31.280Z,6.62
2018-08-28T11:44:00.328Z,5.00
2018-08-28T11:46:29.439Z,5.05
2018-08-28T11:48:58.512Z,4.87
2018-08-28T11:51:27.494Z,4.80
2018-08-28T11:53:56.636Z,6.58
2018-08-28T11:56:25.834Z,6.42
2018-08-28T11:58:55.087Z,4.75
2018-08-28T12:01:24.340Z,5.50
2018-08-28T12:03:53.830Z,5.70
2018-08-28T12:06:22.879Z,6.35
2018-08-28T12:11:27.351Z,5.70
2018-08-28T12:13:56.671Z,6.37
2018-08-28T12:16:28.683Z,5.22
2018-08-28T12:18:57.898Z,5.87
2018-08-28T12:21:26.920Z,3.75
2018-08-28T12:23:56.139Z,4.10
2018-08-28T12:26:25.528Z,4.72
2018-08-28T12:28:54.851Z,5.42
2018-08-28T12:31:23.934Z,5.60
2018-08-28T12:33:53.233Z,5.22
2018-08-28T12:36:22.590Z,4.97
2018-08-28T12:38:51.800Z,7.05
2018-08-28T12:41:21.750Z,6.92
2018-08-28T12:43:50.954Z,5.12
2018-08-28T12:46:20.146Z,5.25
2018-08-28T12:48:49.420Z,4.28
2018-08-28T12:51:18.916Z,4.97
2018-08-28T12:53:49.316Z,4.47
2018-08-28T12:56:18.368Z,7.83
2018-08-28T12:58:47.438Z,4.95
2018-08-28T13:01:16.717Z,6.80
2018-08-28T13:03:47.143Z,4.72
2018-08-28T13:06:17.232Z,5.62
2018-08-28T13:08:47.035Z,4.33
2018-08-28T13:11:16.584Z,5.30
2018-08-28T13:13:46.024Z,4.75
2018-08-28T13:16:15.386Z,4.33
2018-08-28T13:18:44.736Z,5.42
2018-08-28T13:21:13.931Z,4.47
2018-08-28T13:23:43.154Z,4.90
2018-08-28T13:26:12.369Z,5.53
2018-08-28T13:28:41.689Z,5.37
2018-08-28T13:31:10.890Z,4.85
2018-08-28T13:33:40.762Z,4.70
2018-08-28T13:36:10.092Z,4.78
2018-08-28T13:38:39.668Z,4.95
2018-08-28T13:41:09.537Z,4.42
2018-08-28T13:43:38.707Z,5.42
2018-08-28T13:46:08.061Z,4.55
2018-08-28T13:48:38.153Z,5.40
2018-08-28T13:51:07.626Z,4.42
2018-08-28T13:53:36.861Z,7.22
2018-08-28T13:56:07.134Z,3.90
2018-08-28T13:58:36.309Z,4.45
2018-08-28T14:01:06.010Z,4.53
2018-08-28T14:03:35.301Z,5.72
2018-08-28T14:06:04.488Z,4.78
2018-08-28T14:08:33.744Z,4.17
2018-08-28T14:11:03.202Z,6.62
2018-08-28T14:13:32.475Z,3.90
2018-08-28T14:16:02.150Z,4.72
2018-08-28T14:18:31.619Z,6.40
2018-08-28T14:21:00.948Z,4.97
2018-08-28T14:23:30.622Z,5.15
2018-08-28T14:26:00.069Z,5.17
2018-08-28T14:28:29.385Z,5.28
2018-08-28T14:30:58.822Z,4.92
2018-08-28T14:33:28.010Z,4.45
2018-08-28T14:35:58.217Z,3.77
2018-08-28T14:38:27.601Z,5.47
2018-08-28T14:40:56.838Z,3.33
2018-08-28T14:43:26.220Z,4.15
2018-08-28T14:45:55.483Z,5.78
2018-08-28T14:48:24.892Z,5.47
2018-08-28T14:50:54.303Z,5.40
2018-08-28T14:53:23.632Z,4.78
2018-08-28T14:55:52.894Z,5.33
2018-08-28T14:58:22.119Z,7.00
2018-08-28T15:00:51.504Z,5.12
2018-08-28T15:03:20.761Z,5.90
2018-08-28T15:05:50.958Z,3.42
2018-08-28T15:08:20.217Z,6.33
2018-08-28T15:10:49.358Z,4.75
2018-08-28T15:13:18.590Z,4.75
2018-08-28T15:15:47.848Z,6.22
2018-08-28T15:18:17.119Z,5.05
2018-08-28T15:20:46.335Z,4.90
2018-08-28T15:23:15.517Z,4.97
2018-08-28T15:25:44.889Z,4.20
2018-08-28T15:28:14.056Z,4.20
2018-08-28T15:30:43.138Z,4.50
2018-08-28T15:33:12.339Z,4.92
2018-08-28T15:35:41.641Z,4.08
2018-08-28T15:38:10.780Z,3.95
2018-08-28T15:40:40.079Z,6.20
2018-08-28T15:43:09.549Z,5.12
2018-08-28T15:45:38.758Z,4.78
2018-08-28T15:48:09.042Z,4.40
2018-08-28T15:50:38.516Z,4.28
2018-08-28T15:53:07.983Z,4.30
2018-08-28T15:55:37.365Z,3.85
2018-08-28T15:58:06.733Z,3.72
2018-08-28T16:00:36.043Z,4.60
2018-08-28T16:03:05.196Z,4.10
2018-08-28T16:05:34.612Z,4.65
2018-08-28T16:08:03.960Z,3.58
2018-08-28T16:10:33.356Z,6.40
2018-08-28T16:13:02.877Z,4.47
2018-08-28T16:15:32.241Z,3.98
2018-08-28T16:18:01.337Z,4.22
2018-08-28T16:20:30.486Z,4.22
2018-08-28T16:23:02.342Z,4.62
2018-08-28T16:25:31.624Z,4.10
2018-08-28T16:28:01.204Z,4.40
2018-08-28T16:30:30.355Z,4.05
2018-08-28T16:32:59.454Z,4.37
2018-08-28T16:35:28.645Z,4.55
2018-08-28T16:37:57.844Z,4.58
2018-08-28T16:40:27.006Z,4.35
2018-08-28T16:42:56.402Z,4.15
2018-08-28T16:45:25.847Z,4.50
2018-08-28T16:47:55.043Z,4.40
2018-08-28T16:50:24.448Z,4.83
2018-08-28T16:52:53.662Z,3.67
2018-08-28T16:55:22.776Z,3.97
2018-08-28T16:57:52.111Z,2.43
2018-08-28T17:00:21.404Z,3.63
2018-08-28T17:02:50.876Z,3.33
2018-08-28T17:05:20.197Z,5.17
2018-08-28T17:07:49.422Z,5.43
2018-08-28T17:10:19.960Z,3.90
2018-08-28T17:12:49.366Z,5.53
2018-08-28T17:15:18.830Z,4.00
2018-08-28T17:17:48.086Z,4.10
2018-08-28T17:20:17.603Z,3.90
2018-08-28T17:22:46.841Z,3.80
2018-08-28T17:25:16.249Z,3.40
2018-08-28T17:27:45.459Z,3.53
2018-08-28T17:30:14.704Z,4.30
2018-08-28T17:32:44.070Z,6.23
2018-08-28T17:35:13.411Z,3.57
2018-08-28T17:37:42.731Z,3.10
2018-08-28T17:40:12.212Z,2.70
2018-08-28T17:42:41.767Z,3.47
2018-08-28T17:45:11.187Z,3.60
2018-08-28T17:47:40.422Z,3.13
2018-08-28T17:50:10.101Z,3.10
2018-08-28T17:52:39.477Z,3.27
2018-08-28T17:55:08.955Z,3.93
2018-08-28T17:57:38.188Z,3.40
2018-08-28T18:00:08.733Z,3.50
2018-08-28T18:02:37.991Z,2.50
2018-08-28T18:05:07.409Z,3.00
2018-08-28T18:07:36.803Z,3.07
2018-08-28T18:10:06.382Z,3.20
2018-08-28T18:12:35.802Z,3.37
2018-08-28T18:15:05.641Z,2.90
2018-08-28T18:17:34.919Z,2.50
2018-08-28T18:20:04.219Z,3.23
2018-08-28T18:22:33.474Z,3.47
2018-08-28T18:25:02.755Z,3.87
2018-08-28T18:27:32.008Z,4.30
2018-08-28T18:30:01.272Z,4.77
2018-08-28T18:32:30.719Z,4.93
2018-08-28T18:34:59.910Z,4.90
2018-08-28T18:37:29.156Z,5.20
2018-08-28T18:39:58.383Z,6.37
2018-08-28T18:42:27.699Z,4.80
2018-08-28T18:44:56.947Z,8.53
2018-08-28T18:47:26.146Z,7.60
2018-08-28T18:49:55.345Z,4.93
2018-08-28T18:52:24.666Z,4.03
2018-08-28T18:54:53.987Z,3.43
2018-08-28T18:57:23.253Z,3.03
2018-08-28T18:59:52.501Z,3.83
2018-08-28T19:02:22.198Z,4.57
2018-08-28T19:04:51.380Z,4.30
2018-08-28T19:07:20.534Z,4.60
2018-08-28T19:09:49.644Z,5.07
2018-08-28T19:12:18.945Z,5.27
2018-08-28T19:14:48.238Z,4.47
2018-08-28T19:17:17.627Z,5.33
2018-08-28T19:19:46.928Z,6.63
2018-08-28T19:22:16.314Z,4.93
2018-08-28T19:24:45.486Z,5.73
2018-08-28T19:27:14.762Z,6.00
2018-08-28T19:29:44.037Z,5.73
2018-08-28T19:32:13.399Z,7.13
2018-08-28T19:34:42.963Z,4.70
2018-08-28T19:37:12.366Z,5.03
2018-08-28T19:39:41.692Z,5.17
2018-08-28T19:42:11.002Z,4.40
2018-08-28T19:44:41.183Z,4.07
2018-08-28T19:47:11.061Z,6.17
2018-08-28T19:49:40.977Z,3.80
2018-08-28T19:52:10.347Z,4.17
2018-08-28T19:54:39.535Z,3.50
2018-08-28T19:57:08.833Z,4.27
2018-08-28T19:59:38.037Z,5.27
2018-08-28T20:02:07.437Z,4.37
2018-08-28T20:04:36.672Z,5.50
2018-08-28T20:07:06.475Z,5.23
2018-08-28T20:09:35.683Z,4.17
2018-08-28T20:12:05.509Z,4.60
2018-08-28T20:14:34.864Z,4.77
2018-08-28T20:17:03.991Z,4.40
2018-08-28T20:19:33.174Z,3.67
2018-08-28T20:22:02.490Z,4.40
2018-08-28T20:24:32.519Z,4.97
2018-08-28T20:27:02.795Z,5.50
2018-08-28T20:29:32.023Z,3.80
2018-08-28T20:32:01.590Z,3.53
2018-08-28T20:34:31.173Z,3.57
2018-08-28T20:37:00.572Z,3.70
2018-08-28T20:39:29.731Z,5.13
2018-08-28T20:41:59.125Z,3.73
2018-08-28T20:44:28.436Z,4.20
2018-08-28T20:46:57.941Z,3.37
2018-08-28T20:49:27.109Z,4.43
2018-08-28T20:51:56.666Z,4.67
2018-08-28T20:54:25.710Z,3.60
2018-08-28T20:56:54.909Z,3.53
2018-08-28T20:59:24.180Z,3.83
2018-08-28T21:01:53.415Z,3.97
2018-08-28T21:04:22.674Z,4.07
2018-08-28T21:06:51.874Z,4.60
2018-08-28T21:09:21.229Z,5.13
2018-08-28T21:11:50.496Z,7.23
2018-08-28T21:14:19.598Z,6.70
2018-08-28T21:16:48.792Z,4.20
2018-08-28T21:19:18.141Z,5.30
2018-08-28T21:21:47.227Z,6.40
2018-08-28T21:24:16.204Z,4.80
2018-08-28T21:26:45.262Z,5.10
2018-08-28T21:29:14.770Z,6.20
2018-08-28T21:31:43.914Z,4.57
2018-08-28T21:34:13.097Z,5.23
2018-08-28T21:36:42.441Z,4.00
2018-08-28T21:39:11.624Z,4.67
2018-08-28T21:41:40.782Z,5.50
2018-08-28T21:44:10.151Z,4.13
2018-08-28T21:46:39.323Z,4.67
2018-08-28T21:49:08.520Z,4.40
2018-08-28T21:51:37.608Z,4.77
2018-08-28T21:54:06.783Z,4.63
2018-08-28T21:56:35.857Z,4.17
2018-08-28T21:59:05.016Z,4.93
2018-08-28T22:01:34.232Z,6.77
2018-08-28T22:04:03.441Z,5.20
2018-08-28T22:06:38.095Z,4.00
2018-08-28T22:09:07.459Z,5.57
2018-08-28T22:11:36.995Z,5.40
2018-08-28T22:14:06.203Z,5.70
2018-08-28T22:16:35.382Z,5.00
2018-08-28T22:19:04.820Z,5.37
2018-08-28T22:21:34.188Z,7.13
2018-08-28T22:24:03.301Z,4.67
2018-08-28T22:26:33.511Z,4.53
2018-08-28T22:29:03.000Z,4.77
2018-08-28T22:31:32.164Z,5.40
2018-08-28T22:34:02.190Z,5.03
2018-08-28T22:36:31.498Z,4.13
2018-08-28T22:39:00.769Z,5.67
2018-08-28T22:41:29.992Z,5.33
2018-08-28T22:43:59.123Z,6.00
2018-08-28T22:46:28.422Z,7.80
2018-08-28T22:48:57.518Z,8.37
2018-08-28T22:51:26.662Z,6.57
2018-08-28T22:53:55.901Z,3.97
2018-08-28T22:56:25.045Z,3.63
2018-08-28T22:58:54.412Z,3.60
2018-08-28T23:01:23.810Z,4.37
2018-08-28T23:03:53.071Z,4.30
2018-08-28T23:06:22.330Z,4.63
2018-08-28T23:08:51.436Z,4.13
2018-08-28T23:11:20.666Z,6.80
2018-08-28T23:13:49.910Z,5.90
2018-08-28T23:16:19.888Z,5.73
2018-08-28T23:18:49.173Z,6.77
2018-08-28T23:21:18.357Z,5.97
2018-08-28T23:23:47.602Z,4.47
2018-08-28T23:26:16.908Z,5.63
2018-08-28T23:28:46.192Z,9.03
2018-08-28T23:31:15.359Z,8.37
2018-08-28T23:33:44.374Z,7.83
2018-08-28T23:36:13.494Z,7.17
2018-08-28T23:38:42.608Z,7.50
2018-08-28T23:41:12.143Z,5.43
2018-08-28T23:43:41.343Z,5.70
2018-08-28T23:46:10.410Z,6.67
2018-08-28T23:48:39.461Z,6.40
2018-08-28T23:51:08.692Z,6.10
2018-08-28T23:53:37.934Z,8.53
2018-08-28T23:56:07.882Z,6.33
2018-08-28T23:58:37.070Z,5.07
